Time;durP1;ratioP1;P1;durP2;ratioP2;P2;SDS_P1;SDS_P2;PMS_P1;PMS_P2;Temp;Humidity;BMP_temperature;BMP_pressure;BME280_temperature;BME280_humidity;BME280_pressure;Samples;Min_cycle;Max_cycle;Signal;HPM_P1;HPM_P2
2022/09/20 00:00:33;;;;;;;10.68;4.13;;;;;;;14.02;71.42;102196.00;6273356;22;20144;-60
2022/09/20 00:02:59;;;;;;;10.75;4.53;;;;;;;14.00;71.24;102196.25;6275462;22;20053;-60
2022/09/20 00:05:24;;;;;;;11.13;4.35;;;;;;;13.99;70.83;102197.38;6274955;22;20004;-60
2022/09/20 00:07:49;;;;;;;11.38;4.18;;;;;;;13.97;71.28;102195.91;6273878;22;20098;-59
2022/09/20 00:10:15;;;;;;;10.50;4.40;;;;;;;13.98;71.27;102192.84;6275786;22;20014;-60
2022/09/20 00:12:40;;;;;;;8.07;4.47;;;;;;;14.05;70.82;102191.91;6273615;22;20714;-60
2022/09/20 00:15:06;;;;;;;8.23;4.40;;;;;;;13.98;71.33;102192.84;6274445;22;20007;-60
2022/09/20 00:17:31;;;;;;;7.10;4.38;;;;;;;13.99;71.06;102193.72;6274993;22;20004;-60
2022/09/20 00:19:56;;;;;;;8.15;4.65;;;;;;;13.95;71.18;102187.78;6273955;22;20012;-59
2022/09/20 00:22:22;;;;;;;5.68;4.13;;;;;;;13.96;71.22;102185.84;6273833;22;20035;-60
2022/09/20 00:24:47;;;;;;;11.02;5.10;;;;;;;13.95;71.38;102182.19;6274222;22;19999;-60
2022/09/20 00:27:12;;;;;;;6.82;4.10;;;;;;;13.95;71.46;102186.91;6273583;22;20098;-60
2022/09/20 00:29:37;;;;;;;11.48;4.63;;;;;;;13.94;71.48;102186.06;6274734;22;20030;-60
2022/09/20 00:32:03;;;;;;;8.30;4.13;;;;;;;13.91;71.45;102186.56;6274889;22;20523;-60
2022/09/20 00:37:12;;;;;;;10.20;4.35;;;;;;;13.88;71.35;102186.22;6274115;22;20046;-60
2022/09/20 00:39:37;;;;;;;8.38;4.72;;;;;;;13.89;70.94;102188.75;6274532;22;20359;-60
2022/09/20 00:42:03;;;;;;;7.57;4.20;;;;;;;13.92;71.16;102195.78;6273683;22;20004;-60
2022/09/20 00:44:41;;;;;;;10.38;4.55;;;;;;;13.89;71.28;102199.91;6275104;22;20481;-59
2022/09/20 00:47:15;;;;;;;7.45;4.38;;;;;;;13.89;71.30;102199.91;6274399;22;20007;-59
2022/09/20 00:49:40;;;;;;;8.73;4.70;;;;;;;13.86;70.98;102196.75;6273331;22;20021;-59
2022/09/20 00:52:05;;;;;;;9.40;4.20;;;;;;;13.84;70.70;102188.63;6273823;22;20122;-59
2022/09/20 00:54:32;;;;;;;8.85;3.92;;;;;;;13.82;71.25;102188.00;6274406;22;20089;-60
2022/09/20 00:56:57;;;;;;;9.27;3.90;;;;;;;13.81;70.99;102191.91;6273515;22;20384;-59
2022/09/20 00:59:29;;;;;;;13.13;4.75;;;;;;;13.77;70.99;102193.47;6274707;22;20061;-59
2022/09/20 01:02:19;;;;;;;6.97;4.27;;;;;;;13.84;70.89;102199.78;6274270;22;20367;-59
2022/09/20 01:04:47;;;;;;;6.85;4.15;;;;;;;13.76;70.91;102189.00;6273458;22;20468;-59
2022/09/20 01:07:15;;;;;;;10.45;3.97;;;;;;;13.74;70.69;102191.16;6273982;22;20012;-60
2022/09/20 01:09:40;;;;;;;9.45;3.65;;;;;;;13.70;70.75;102188.00;6273456;22;20015;-59
2022/09/20 01:12:11;;;;;;;6.55;3.90;;;;;;;13.68;70.92;102193.00;6274362;22;20004;-59
2022/09/20 01:14:39;;;;;;;6.95;4.10;;;;;;;13.68;70.71;102180.97;6274636;22;20008;-59
2022/09/20 01:17:06;;;;;;;7.25;3.88;;;;;;;13.70;70.55;102187.16;6273820;22;20373;-59
2022/09/20 01:19:40;;;;;;;7.82;4.07;;;;;;;13.69;70.81;102183.53;6274231;22;20039;-59
2022/09/20 01:22:21;;;;;;;8.48;4.07;;;;;;;13.69;70.64;102189.09;6273841;22;20420;-60
2022/09/20 01:25:04;;;;;;;7.28;3.85;;;;;;;13.69;70.81;102179.88;6273311;22;19999;-59
2022/09/20 01:27:47;;;;;;;8.63;3.60;;;;;;;13.75;70.83;102176.09;6275099;22;20043;-59
2022/09/20 01:30:19;;;;;;;12.75;4.35;;;;;;;13.69;70.62;102182.69;6273742;22;20426;-59
2022/09/20 01:32:56;;;;;;;7.38;3.70;;;;;;;13.67;70.81;102182.06;6273566;22;20098;-59
2022/09/20 01:35:24;;;;;;;8.55;4.18;;;;;;;13.66;71.22;102184.00;6273781;22;20015;-59
2022/09/20 01:37:59;;;;;;;10.82;4.30;;;;;;;13.70;70.93;102195.53;6273133;22;20580;-59
2022/09/20 01:40:37;;;;;;;7.88;4.10;;;;;;;13.65;70.71;102192.63;6274095;22;20015;-59
2022/09/20 01:43:25;;;;;;;11.40;4.22;;;;;;;13.68;70.88;102186.56;6273905;22;20022;-59
2022/09/20 01:45:51;;;;;;;9.20;3.67;;;;;;;13.62;71.16;102187.50;6273430;22;20004;-59
2022/09/20 01:48:34;;;;;;;11.48;4.20;;;;;;;13.67;70.60;102194.06;6273057;22;19995;-59
2022/09/20 01:51:05;;;;;;;8.00;4.10;;;;;;;13.66;71.16;102188.72;6274065;22;20082;-60
2022/09/20 01:53:58;;;;;;;9.48;3.60;;;;;;;13.64;70.86;102190.94;6273538;22;20043;-59
2022/09/20 01:56:26;;;;;;;8.38;3.60;;;;;;;13.66;70.91;102189.56;6274423;22;20003;-59
2022/09/20 01:59:16;;;;;;;10.18;3.67;;;;;;;13.67;70.89;102191.25;6273036;22;20004;-59
2022/09/20 02:02:06;;;;;;;7.60;4.07;;;;;;;13.69;70.99;102189.09;6274444;22;20007;-59
2022/09/20 02:04:46;;;;;;;10.23;4.25;;;;;;;13.61;71.04;102188.63;6276162;22;20014;-59
2022/09/20 02:07:47;;;;;;;7.75;3.60;;;;;;;13.67;70.85;102191.25;6275912;22;20004;-59
2022/09/20 02:10:50;;;;;;;5.57;3.85;;;;;;;13.68;70.79;102194.94;6277032;22;20012;-59
2022/09/20 02:13:28;;;;;;;10.32;3.78;;;;;;;13.66;70.83;102183.16;6274856;22;20426;-60
2022/09/20 02:16:15;;;;;;;6.47;3.72;;;;;;;13.68;71.18;102192.16;6275464;22;20007;-59
2022/09/20 02:19:24;;;;;;;8.38;3.70;;;;;;;13.69;70.60;102185.47;6275565;22;20008;-59
2022/09/20 02:22:07;;;;;;;7.38;3.85;;;;;;;13.69;70.94;102191.03;6276227;22;20054;-59
2022/09/20 02:24:57;;;;;;;8.95;4.13;;;;;;;13.69;70.95;102188.25;6275915;22;20011;-59
2022/09/20 02:27:46;;;;;;;7.78;3.40;;;;;;;13.65;70.85;102190.69;6275285;22;20000;-59
2022/09/20 02:30:33;;;;;;;10.43;3.67;;;;;;;13.64;71.08;102183.41;6276325;22;20000;-59
2022/09/20 02:33:04;;;;;;;6.65;4.07;;;;;;;13.60;71.08;102184.97;6275726;22;20016;-59
2022/09/20 02:35:29;;;;;;;10.30;4.05;;;;;;;13.57;71.03;102188.25;6274700;22;20325;-59
2022/09/20 02:38:17;;;;;;;7.68;3.88;;;;;;;13.61;71.12;102183.88;6275053;22;20011;-59
2022/09/20 02:41:00;;;;;;;5.60;3.42;;;;;;;13.58;71.12;102181.56;6275226;22;20008;-59
2022/09/20 02:44:07;;;;;;;8.00;3.90;;;;;;;13.62;71.20;102182.78;6275842;22;20004;-59
2022/09/20 02:46:54;;;;;;;7.70;3.60;;;;;;;13.61;71.13;102185.81;6275916;22;20014;-59
2022/09/20 02:49:34;;;;;;;9.45;3.63;;;;;;;13.61;71.14;102191.41;6274251;22;20054;-59
2022/09/20 02:52:15;;;;;;;9.63;4.38;;;;;;;13.58;71.39;102191.88;6275965;22;20363;-60
2022/09/20 02:54:57;;;;;;;10.02;3.55;;;;;;;13.56;71.11;102194.91;6276247;22;20008;-59
2022/09/20 02:57:25;;;;;;;8.77;3.45;;;;;;;13.57;71.09;102188.25;6275234;22;20007;-59
2022/09/20 03:00:01;;;;;;;8.30;3.58;;;;;;;13.56;71.23;102182.88;6274883;22;20019;-60
2022/09/20 03:02:44;;;;;;;8.82;4.00;;;;;;;13.56;71.48;102172.59;6273870;22;20007;-59
2022/09/20 03:05:20;;;;;;;7.15;3.80;;;;;;;13.50;71.85;102179.97;6274904;22;20420;-59
2022/09/20 03:08:04;;;;;;;8.25;3.75;;;;;;;13.53;71.70;102175.88;6275523;22;20050;-59
2022/09/20 03:11:00;;;;;;;6.93;4.03;;;;;;;13.58;71.74;102175.13;6275042;22;20008;-59
2022/09/20 03:13:38;;;;;;;10.00;3.65;;;;;;;13.58;71.85;102183.50;6275522;22;20035;-59
2022/09/20 03:16:06;;;;;;;8.40;4.13;;;;;;;13.54;71.77;102174.78;6274731;22;20087;-59
2022/09/20 03:18:42;;;;;;;7.07;3.97;;;;;;;13.56;71.97;102186.56;6275659;22;20004;-59
2022/09/20 03:21:21;;;;;;;7.88;4.07;;;;;;;13.54;72.04;102182.28;6275730;22;20061;-59
2022/09/20 03:23:52;;;;;;;10.77;4.28;;;;;;;13.53;71.79;102177.81;6274193;22;20079;-59
2022/09/20 03:26:39;;;;;;;7.75;4.15;;;;;;;13.55;71.76;102179.25;6275383;22;20369;-59
2022/09/20 03:29:35;;;;;;;11.98;4.63;;;;;;;13.54;72.15;102185.09;6275373;22;20007;-59
2022/09/20 03:32:16;;;;;;;8.80;3.53;;;;;;;13.52;72.24;102185.34;6274778;22;20053;-59
2022/09/20 03:35:06;;;;;;;9.90;4.63;;;;;;;13.56;72.20;102180.97;6274882;22;20057;-60
2022/09/20 03:37:59;;;;;;;9.60;4.20;;;;;;;13.53;72.22;102183.38;6274581;22;20383;-60
2022/09/20 03:40:50;;;;;;;8.48;4.20;;;;;;;13.53;72.27;102183.38;6275375;22;20389;-60
2022/09/20 03:43:37;;;;;;;6.93;4.43;;;;;;;13.55;72.23;102183.97;6274754;22;20033;-59
2022/09/20 03:46:16;;;;;;;9.10;4.38;;;;;;;13.49;72.38;102183.03;6273955;22;20019;-59
2022/09/20 03:48:42;;;;;;;10.15;4.55;;;;;;;13.47;72.60;102191.59;6275191;22;20004;-59
2022/09/20 03:51:47;;;;;;;7.57;4.68;;;;;;;13.56;72.01;102191.25;6274740;22;20035;-59
2022/09/20 03:54:37;;;;;;;8.55;4.80;;;;;;;13.49;72.60;102192.22;6273267;22;20016;-60
2022/09/20 03:57:58;;;;;;;6.85;4.32;;;;;;;13.61;72.12;102185.81;6274888;22;20381;-59
2022/09/20 04:00:44;;;;;;;9.30;4.97;;;;;;;13.56;72.25;102183.75;6150431;23;20088;-59
2022/09/20 04:03:32;;;;;;;9.77;4.60;;;;;;;13.58;72.12;102186.31;6273916;22;19999;-59
2022/09/20 04:06:16;;;;;;;7.57;4.70;;;;;;;13.51;72.55;102181.66;6274086;22;20004;-59
2022/09/20 04:09:13;;;;;;;8.48;4.65;;;;;;;13.58;72.29;102186.31;6274974;22;20004;-59
2022/09/20 04:12:00;;;;;;;9.45;4.72;;;;;;;13.54;72.29;102183.13;6274256;22;20015;-59
2022/09/20 04:14:33;;;;;;;7.95;4.80;;;;;;;13.45;72.62;102171.50;6274182;22;20011;-60
2022/09/20 04:17:21;;;;;;;8.52;5.10;;;;;;;13.49;72.65;102175.50;6274972;22;20004;-60
2022/09/20 04:19:57;;;;;;;7.40;4.30;;;;;;;13.46;72.66;102169.53;6273889;22;20324;-60
2022/09/20 04:22:25;;;;;;;10.05;4.28;;;;;;;13.50;72.89;102168.81;6275050;22;20036;-60
2022/09/20 04:25:11;;;;;;;11.15;4.47;;;;;;;13.51;72.65;102173.28;6273287;22;20007;-60
2022/09/20 04:27:48;;;;;;;8.77;4.22;;;;;;;13.50;73.09;102179.97;6273364;22;20008;-60
2022/09/20 04:30:26;;;;;;;10.35;4.55;;;;;;;13.51;72.89;102176.09;6274497;22;20007;-60
2022/09/20 04:33:00;;;;;;;9.93;4.55;;;;;;;13.50;72.88;102179.13;6274249;22;20061;-60
2022/09/20 04:38:30;;;;;;;9.23;4.47;;;;;;;13.50;72.45;102174.41;6273517;22;20110;-60
2022/09/20 04:41:48;;;;;;;8.05;4.20;;;;;;;13.57;72.24;102165.94;6273163;22;20436;-59
2022/09/20 04:44:26;;;;;;;10.02;4.05;;;;;;;13.50;72.41;102166.03;6151212;23;20009;-60
2022/09/20 04:47:23;;;;;;;10.13;4.70;;;;;;;13.55;72.72;102178.41;6273486;22;20049;-60
2022/09/20 04:50:15;;;;;;;8.70;4.60;;;;;;;13.54;72.57;102174.78;6274008;22;20007;-60
2022/09/20 04:53:01;;;;;;;9.25;4.75;;;;;;;13.54;72.56;102179.50;6274032;22;20029;-60
2022/09/20 04:55:45;;;;;;;5.35;4.03;;;;;;;13.53;72.42;102186.19;6273779;22;20000;-60
2022/09/20 04:58:35;;;;;;;8.60;4.68;;;;;;;13.53;72.32;102192.59;6274304;22;20039;-60
2022/09/20 05:01:15;;;;;;;8.60;4.60;;;;;;;13.46;72.89;102184.34;6272717;22;20007;-59
2022/09/20 05:04:18;;;;;;;11.20;4.53;;;;;;;13.50;72.53;102191.13;6273522;22;20042;-60
2022/09/20 05:07:03;;;;;;;;;;;;;;;13.65;71.60;102192.63;6274950;22;20007;-60
2022/09/20 05:10:06;;;;;;;8.32;4.53;;;;;;;13.50;72.27;102191.13;6273988;22;20270;-60
2022/09/20 05:12:51;;;;;;;;;;;;;;;13.65;71.77;102198.19;6274915;22;20091;-60
2022/09/20 05:15:52;;;;;;;8.75;4.38;;;;;;;13.51;72.37;102191.97;6273497;22;19922;-60
2022/09/20 05:18:36;;;;;;;8.90;4.43;;;;;;;13.49;72.53;102195.03;6274654;22;20003;-60
2022/09/20 05:21:23;;;;;;;7.05;4.10;;;;;;;13.43;72.23;102204.34;6274094;22;20018;-59
2022/09/20 05:24:14;;;;;;;7.07;4.30;;;;;;;13.46;72.49;102209.44;6273442;22;20007;-60
2022/09/20 05:27:03;;;;;;;11.35;4.43;;;;;;;13.40;72.51;102210.41;6273943;22;20015;-59
2022/09/20 05:29:50;;;;;;;6.55;4.25;;;;;;;13.43;72.57;102209.91;6273631;22;20011;-59
2022/09/20 05:32:34;;;;;;;9.48;4.90;;;;;;;13.38;72.43;102208.94;6273850;22;20011;-60
2022/09/20 05:35:06;;;;;;;6.60;4.82;;;;;;;13.34;72.49;102213.28;6274692;22;20003;-60
2022/09/20 05:37:42;;;;;;;5.53;4.30;;;;;;;13.37;72.71;102223.97;6274496;22;20008;-60
2022/09/20 05:40:47;;;;;;;7.45;4.82;;;;;;;13.39;72.65;102222.63;6276578;22;20031;-60
2022/09/20 05:43:25;;;;;;;7.72;4.25;;;;;;;13.34;72.61;102230.88;6213602;22;20015;-59
2022/09/20 05:46:15;;;;;;;6.38;4.60;;;;;;;13.39;72.61;102227.38;6276343;22;20083;-59
2022/09/20 05:48:52;;;;;;;6.18;4.53;;;;;;;13.33;72.91;102226.41;6277082;22;20435;-60
2022/09/20 05:51:51;;;;;;;7.88;5.22;;;;;;;13.35;72.81;102229.78;6275911;22;20023;-59
2022/09/20 05:54:42;;;;;;;10.88;4.53;;;;;;;13.33;72.72;102228.34;6276075;22;20012;-60
2022/09/20 05:57:26;;;;;;;8.05;4.25;;;;;;;13.30;72.98;102226.88;6218575;22;20038;-60
2022/09/20 06:00:06;;;;;;;8.60;4.30;;;;;;;13.36;72.89;102230.63;6275129;22;20525;-60
2022/09/20 06:02:53;;;;;;;7.40;4.55;;;;;;;13.41;72.77;102233.56;6275316;22;20007;-59
2022/09/20 06:05:46;;;;;;;8.10;4.72;;;;;;;13.43;72.29;102248.97;6274279;22;20458;-59
2022/09/20 06:08:37;;;;;;;8.05;4.43;;;;;;;13.35;72.92;102248.47;6275101;22;20011;-60
2022/09/20 06:11:21;;;;;;;8.90;4.53;;;;;;;13.37;72.88;102241.56;6226061;22;20470;-59
2022/09/20 06:14:08;;;;;;;7.72;4.70;;;;;;;13.42;72.75;102249.22;6273819;22;20015;-59
2022/09/20 06:16:45;;;;;;;8.55;4.57;;;;;;;13.37;73.05;102252.72;6274749;22;20004;-59
2022/09/20 06:19:45;;;;;;;8.25;4.28;;;;;;;13.40;73.07;102252.25;6274341;22;20084;-59
2022/09/20 06:22:23;;;;;;;2.83;1.80;;;;;;;13.93;76.89;102256.09;6276587;22;20018;-59
2022/09/20 06:25:07;;;;;;;3.92;1.85;;;;;;;14.40;76.19;102261.69;6274903;22;20012;-60
2022/09/20 06:27:38;;;;;;;7.85;2.30;;;;;;;14.84;75.54;102256.53;6274713;22;20440;-59
2022/09/20 06:30:11;;;;;;;3.47;1.90;;;;;;;15.08;73.86;102257.28;6275246;22;20078;-59
2022/09/20 06:32:52;;;;;;;4.80;2.50;;;;;;;15.30;72.37;102260.25;6274899;22;20090;-59
2022/09/20 06:35:19;;;;;;;5.57;2.80;;;;;;;15.48;71.25;102260.00;6275548;22;20007;-60
2022/09/20 06:43:35;;;;;;;5.55;3.28;;;;;;;15.66;67.84;102264.56;6272741;22;20348;-60
2022/09/20 06:46:01;;;;;;;6.82;4.05;;;;;;;15.23;67.42;102260.38;6275361;22;20012;-60
2022/09/20 06:48:28;;;;;;;8.68;4.10;;;;;;;14.88;68.03;102258.56;6271520;22;20324;-60
2022/09/20 06:50:54;;;;;;;6.90;4.53;;;;;;;14.68;68.64;102259.00;6273153;22;20101;-60
2022/09/20 06:53:29;;;;;;;7.05;4.68;;;;;;;14.48;69.60;102270.53;6272528;22;20011;-59
2022/09/20 06:55:54;;;;;;;6.55;4.18;;;;;;;14.33;69.92;102253.41;6271654;22;20424;-60
2022/09/20 06:58:20;;;;;;;5.60;4.57;;;;;;;14.23;70.63;102267.16;6268357;22;20057;-60
2022/09/20 07:00:45;;;;;;;6.82;4.15;;;;;;;14.11;70.68;102255.13;6267402;22;20057;-60
2022/09/20 07:03:11;;;;;;;8.30;4.68;;;;;;;14.03;71.26;102258.28;6267816;22;20065;-60
2022/09/20 07:05:37;;;;;;;5.22;3.83;;;;;;;14.03;71.38;102272.22;6268765;22;20095;-60
2022/09/20 07:08:03;;;;;;;10.52;4.90;;;;;;;13.96;71.50;102262.06;6270753;22;20046;-59
2022/09/20 07:10:28;;;;;;;7.07;4.65;;;;;;;13.93;71.65;102262.53;6270334;22;20003;-62
2022/09/20 07:12:55;;;;;;;9.13;5.05;;;;;;;13.93;72.11;102268.09;6274134;22;20053;-61
2022/09/20 07:15:23;;;;;;;10.18;4.80;;;;;;;13.94;71.53;102266.16;6271614;22;20003;-61
2022/09/20 07:17:49;;;;;;;6.22;4.75;;;;;;;13.91;72.17;102259.16;6275515;22;20320;-60
2022/09/20 07:20:15;;;;;;;8.93;4.82;;;;;;;13.91;72.20;102264.72;6273757;22;20007;-60
2022/09/20 07:22:40;;;;;;;7.88;4.80;;;;;;;13.91;71.90;102264.72;6273084;22;20370;-59
2022/09/20 07:25:12;;;;;;;8.55;4.78;;;;;;;13.90;72.08;102257.41;6273733;22;20029;-59
2022/09/20 07:27:38;;;;;;;5.57;4.57;;;;;;;13.91;71.73;102259.16;6274024;22;20038;-62
2022/09/20 07:30:05;;;;;;;7.75;4.28;;;;;;;13.93;71.79;102262.53;6271731;22;20008;-60
2022/09/20 07:32:30;;;;;;;8.88;5.03;;;;;;;13.92;71.73;102263.63;6271590;22;20016;-59
2022/09/20 07:34:55;;;;;;;9.35;5.18;;;;;;;13.94;72.10;102264.22;6274078;22;19999;-59
2022/09/20 07:37:21;;;;;;;9.77;4.55;;;;;;;13.99;71.77;102263.53;6272815;22;20085;-59
2022/09/20 07:39:46;;;;;;;8.55;5.15;;;;;;;13.97;71.77;102268.47;6272076;22;20000;-59
2022/09/20 07:42:12;;;;;;;5.47;4.53;;;;;;;14.05;72.27;102270.91;6271384;22;20011;-59
2022/09/20 07:44:41;;;;;;;10.55;4.60;;;;;;;14.09;71.58;102271.28;6273143;22;20003;-59
2022/09/20 07:47:09;;;;;;;7.43;4.53;;;;;;;14.10;71.63;102275.75;6273813;22;20010;-59
2022/09/20 07:49:35;;;;;;;6.60;5.00;;;;;;;14.13;71.26;102281.72;6273691;22;20008;-59
2022/09/20 07:52:01;;;;;;;8.32;4.50;;;;;;;14.14;71.28;102279.78;6273383;22;20089;-59
2022/09/20 07:54:26;;;;;;;8.38;4.63;;;;;;;14.13;70.65;102284.50;6274569;22;20033;-59
2022/09/20 07:56:51;;;;;;;7.60;4.65;;;;;;;14.13;71.09;102283.66;6273864;22;20006;-59
2022/09/20 07:59:17;;;;;;;8.43;4.05;;;;;;;14.12;71.47;102293.97;6274179;22;20011;-59
2022/09/20 08:01:42;;;;;;;9.13;4.38;;;;;;;14.17;71.27;102301.63;6275384;22;20016;-59
2022/09/20 08:04:08;;;;;;;8.02;4.13;;;;;;;14.18;71.18;102303.31;6275283;22;20008;-59
2022/09/20 08:06:43;;;;;;;7.90;4.10;;;;;;;14.15;71.14;102299.09;6274818;22;20031;-59
2022/09/20 08:09:09;;;;;;;5.10;3.75;;;;;;;14.18;70.97;102300.53;6275083;22;20008;-59
2022/09/20 08:11:35;;;;;;;6.68;3.97;;;;;;;14.28;71.24;102303.59;6271284;22;20004;-59
2022/09/20 08:14:02;;;;;;;9.43;4.10;;;;;;;14.49;71.09;102300.19;6274267;22;20034;-59
2022/09/20 08:16:28;;;;;;;7.43;4.30;;;;;;;14.66;70.39;102299.47;6274187;22;20010;-59
2022/09/20 08:18:57;;;;;;;6.45;4.60;;;;;;;14.86;70.22;102299.91;6273985;22;20085;-59
2022/09/20 08:21:24;;;;;;;6.63;4.00;;;;;;;14.98;69.62;102297.09;6274336;22;20069;-59
2022/09/20 08:23:50;;;;;;;9.15;4.03;;;;;;;15.06;68.87;102298.66;6274596;22;20354;-59
2022/09/20 08:26:18;;;;;;;5.60;3.78;;;;;;;15.06;68.24;102296.69;6273928;22;20036;-59
2022/09/20 08:28:48;;;;;;;9.02;3.92;;;;;;;15.07;68.06;102294.75;6274541;22;20332;-59
2022/09/20 08:31:18;;;;;;;6.20;3.50;;;;;;;15.04;67.16;102298.88;6274278;22;19999;-59
2022/09/20 08:33:44;;;;;;;8.05;3.17;;;;;;;15.19;67.28;102301.16;6273587;22;20012;-59
2022/09/20 08:36:16;;;;;;;10.23;3.40;;;;;;;15.32;66.31;102306.44;6274259;22;20000;-59
2022/09/20 08:38:42;;;;;;;9.35;3.42;;;;;;;15.52;65.89;102297.56;6274431;22;20008;-59
2022/09/20 08:41:16;;;;;;;6.13;3.22;;;;;;;15.71;65.51;102307.47;6274090;22;20365;-59
2022/09/20 08:44:02;;;;;;;6.18;3.17;;;;;;;15.85;64.93;102302.44;6274695;22;20309;-59
2022/09/20 08:46:32;;;;;;;7.53;2.80;;;;;;;16.04;63.81;102305.00;6274110;22;20014;-59
2022/09/20 08:48:58;;;;;;;8.98;2.72;;;;;;;16.21;63.58;102311.44;6274084;22;20443;-59
2022/09/20 08:51:29;;;;;;;5.88;2.30;;;;;;;16.31;61.72;102310.72;6274403;22;20000;-59
2022/09/20 08:53:57;;;;;;;5.35;1.90;;;;;;;16.40;60.63;102312.84;6273798;22;20109;-59
2022/09/20 08:56:27;;;;;;;10.52;2.60;;;;;;;16.50;60.14;102316.91;6273949;22;20004;-59
2022/09/20 08:58:53;;;;;;;7.35;3.08;;;;;;;16.62;60.14;102320.44;6274380;22;20332;-59
2022/09/20 09:01:24;;;;;;;4.75;1.80;;;;;;;16.68;59.47;102313.81;6273522;22;20007;-59
2022/09/20 09:03:51;;;;;;;6.65;1.73;;;;;;;16.70;57.47;102308.78;6274497;22;20000;-59
2022/09/20 09:06:20;;;;;;;5.05;1.60;;;;;;;16.87;57.61;102318.03;6273623;22;20722;-60
2022/09/20 09:08:52;;;;;;;7.25;1.73;;;;;;;16.96;56.62;102320.41;6273762;22;20125;-59
2022/09/20 09:11:19;;;;;;;7.38;1.20;;;;;;;17.06;55.73;102303.72;6273814;22;20015;-60
2022/09/20 09:13:52;;;;;;;6.68;1.60;;;;;;;17.13;56.38;102315.56;6273364;22;20415;-59
2022/09/20 09:16:20;;;;;;;6.88;1.48;;;;;;;17.20;54.90;102307.78;6272513;22;20003;-59
2022/09/20 09:18:50;;;;;;;6.03;1.60;;;;;;;17.36;55.41;102320.03;6274344;22;20038;-59
2022/09/20 09:21:24;;;;;;;8.43;1.92;;;;;;;17.38;55.06;102313.06;6273491;22;20010;-59
2022/09/20 09:24:04;;;;;;;7.82;1.90;;;;;;;17.47;55.05;102307.81;6273899;22;20011;-59
2022/09/20 09:26:38;;;;;;;6.32;1.58;;;;;;;17.41;55.95;102312.53;6273995;22;20420;-59
2022/09/20 09:29:17;;;;;;;5.25;1.15;;;;;;;17.31;56.10;102309.59;6273517;22;20035;-59
2022/09/20 09:31:46;;;;;;;4.40;1.33;;;;;;;17.23;54.74;102312.88;6274349;22;20400;-59
2022/09/20 09:34:29;;;;;;;8.00;1.30;;;;;;;17.17;56.03;102311.13;6273752;22;20028;-59
2022/09/20 09:36:55;;;;;;;5.45;1.40;;;;;;;17.05;54.80;102310.41;6273215;22;20412;-59
2022/09/20 09:39:37;;;;;;;4.72;1.20;;;;;;;17.00;55.42;102313.16;6273806;22;20065;-59
2022/09/20 09:42:24;;;;;;;3.30;1.20;;;;;;;16.95;56.25;102313.09;6274122;22;20004;-59
2022/09/20 09:44:50;;;;;;;4.82;1.20;;;;;;;16.86;55.01;102315.50;6273266;22;19999;-59
2022/09/20 09:47:30;;;;;;;8.40;1.40;;;;;;;16.79;55.89;102317.66;6273874;22;20042;-59
2022/09/20 09:49:57;;;;;;;5.43;1.30;;;;;;;16.63;54.66;102322.16;6273432;22;20020;-59
2022/09/20 09:52:26;;;;;;;6.60;1.63;;;;;;;16.58;53.83;102317.31;6273836;22;20046;-59
2022/09/20 09:54:58;;;;;;;4.57;0.93;;;;;;;16.45;54.12;102312.91;6273423;22;20493;-59
2022/09/20 09:57:45;;;;;;;8.77;1.38;;;;;;;16.47;55.62;102321.09;6273306;22;20008;-59
2022/09/20 10:00:13;;;;;;;8.23;1.50;;;;;;;16.35;55.80;102321.19;6273823;22;20015;-59
2022/09/20 10:02:59;;;;;;;5.05;1.10;;;;;;;16.29;57.02;102325.00;6273471;22;20420;-59
2022/09/20 10:05:27;;;;;;;3.95;0.90;;;;;;;16.17;55.34;102333.50;6272998;22;20057;-59
2022/09/20 10:08:09;;;;;;;5.30;1.20;;;;;;;16.14;56.79;102333.16;6274031;22;20011;-59
2022/09/20 10:11:02;;;;;;;7.90;1.20;;;;;;;16.08;58.50;102334.19;6273514;22;20015;-58
2022/09/20 10:13:53;;;;;;;4.38;1.52;;;;;;;15.99;60.11;102339.34;6273462;22;20015;-58
2022/09/20 10:16:52;;;;;;;5.10;1.27;;;;;;;15.92;60.38;102333.06;6273530;22;20017;-59
2022/09/20 10:19:22;;;;;;;10.10;1.63;;;;;;;15.85;60.86;102335.19;6273177;22;20031;-59
2022/09/20 10:22:08;;;;;;;7.15;1.30;;;;;;;15.82;61.24;102336.53;6274098;22;20028;-59
2022/09/20 10:24:51;;;;;;;4.90;1.17;;;;;;;15.76;60.29;102342.28;6275135;22;20057;-59
2022/09/20 10:27:47;;;;;;;6.88;1.40;;;;;;;15.77;60.58;102324.41;6274834;22;20010;-59
2022/09/20 10:30:25;;;;;;;10.65;1.50;;;;;;;15.68;61.20;102329.56;6275195;22;20087;-59
2022/09/20 10:32:58;;;;;;;5.45;1.50;;;;;;;15.65;61.43;102324.47;6274814;22;20087;-58
2022/09/20 10:35:32;;;;;;;9.63;1.42;;;;;;;15.62;61.73;102325.78;6275769;22;20023;-59
2022/09/20 10:38:07;;;;;;;7.05;1.25;;;;;;;15.65;61.92;102324.47;6275692;22;20004;-59
2022/09/20 10:43:54;;;;;;;10.30;2.30;;;;;;;15.64;62.82;102331.09;6275267;22;20102;-59
2022/09/20 10:46:41;;;;;;;3.88;1.20;;;;;;;15.67;62.79;102330.63;6274381;22;20123;-59
2022/09/20 10:49:12;;;;;;;6.68;1.60;;;;;;;15.65;63.26;102325.31;6274414;22;20378;-59
2022/09/20 10:51:53;;;;;;;3.80;1.42;;;;;;;15.70;63.92;102325.38;6274145;22;19999;-59
2022/09/20 10:54:35;;;;;;;5.78;1.40;;;;;;;15.73;63.37;102326.84;6274879;22;20019;-59
2022/09/20 10:57:19;;;;;;;4.47;1.20;;;;;;;15.78;63.32;102324.13;6275277;22;20428;-60
2022/09/20 11:00:03;;;;;;;3.47;1.13;;;;;;;15.79;62.84;102325.81;6273794;22;20429;-60
2022/09/20 11:02:54;;;;;;;6.45;1.13;;;;;;;15.80;62.02;102327.53;6273879;22;20003;-60
2022/09/20 11:05:29;;;;;;;11.18;1.38;;;;;;;15.79;61.31;102333.38;6274675;22;20413;-60
2022/09/20 11:08:05;;;;;;;6.28;1.40;;;;;;;15.83;61.50;102332.63;6274440;22;20000;-60
2022/09/20 11:10:37;;;;;;;4.80;1.20;;;;;;;15.85;61.06;102327.63;6274536;22;20074;-60
2022/09/20 11:13:25;;;;;;;6.70;1.25;;;;;;;15.95;61.42;102329.75;6274847;22;20078;-60
2022/09/20 11:15:54;;;;;;;6.65;1.42;;;;;;;16.13;60.45;102325.84;6274088;22;20004;-60
2022/09/20 11:18:39;;;;;;;11.30;1.77;;;;;;;16.33;59.64;102334.59;6273437;22;20004;-60
2022/09/20 11:21:10;;;;;;;10.02;1.50;;;;;;;16.51;58.37;102339.09;6274402;22;20004;-60
2022/09/20 11:23:47;;;;;;;9.65;1.33;;;;;;;16.62;57.60;102335.34;6274233;22;20412;-60
2022/09/20 11:26:19;;;;;;;6.88;1.13;;;;;;;16.60;56.48;102339.50;6273680;22;20421;-60
2022/09/20 11:28:49;;;;;;;6.05;0.95;;;;;;;16.50;54.93;102340.16;6274425;22;20004;-60
2022/09/20 11:31:37;;;;;;;4.13;0.90;;;;;;;16.43;55.48;102342.31;6274316;22;20014;-59
2022/09/20 11:34:15;;;;;;;4.55;1.20;;;;;;;16.35;55.27;102345.56;6274253;22;20062;-59
2022/09/20 11:37:02;;;;;;;4.88;1.20;;;;;;;16.30;57.30;102349.09;6274506;22;20019;-59
2022/09/20 11:39:41;;;;;;;4.88;0.90;;;;;;;16.19;56.92;102352.84;6273685;22;20003;-58
2022/09/20 11:42:15;;;;;;;3.88;1.20;;;;;;;16.12;58.74;102358.63;6274192;22;20023;-58
2022/09/20 11:44:41;;;;;;;7.22;1.30;;;;;;;16.09;59.22;102352.69;6272999;22;20011;-58
2022/09/20 11:47:20;;;;;;;5.40;1.13;;;;;;;16.09;59.31;102355.47;6274126;22;20102;-59
2022/09/20 11:50:06;;;;;;;3.25;1.00;;;;;;;16.08;58.49;102356.59;6273907;22;20303;-58
2022/09/20 11:52:53;;;;;;;5.72;1.45;;;;;;;16.08;59.54;102357.44;6273754;22;20054;-59
2022/09/20 11:55:43;;;;;;;4.47;1.00;;;;;;;16.07;59.42;102357.69;6273545;22;20420;-59
2022/09/20 11:58:12;;;;;;;6.72;1.60;;;;;;;16.00;58.64;102357.00;6272788;22;20003;-58
2022/09/20 12:00:41;;;;;;;1.63;0.95;;;;;;;16.00;58.48;102351.41;6273225;22;20019;-58
2022/09/20 12:03:22;;;;;;;3.67;1.10;;;;;;;16.00;58.62;102359.81;6273576;22;20000;-59
2022/09/20 12:05:56;;;;;;;7.55;1.63;;;;;;;16.00;58.30;102357.84;6274612;22;20373;-60
2022/09/20 12:08:32;;;;;;;5.47;1.10;;;;;;;16.01;58.65;102356.75;6274506;22;20408;-60
2022/09/20 12:11:03;;;;;;;8.35;1.45;;;;;;;15.99;58.40;102356.13;6274108;22;20045;-59
2022/09/20 12:13:30;;;;;;;8.40;1.23;;;;;;;16.01;57.57;102361.50;6274530;22;20086;-59
2022/09/20 12:16:04;;;;;;;7.93;1.33;;;;;;;15.98;58.31;102356.41;6274748;22;20029;-59
2022/09/20 12:18:37;;;;;;;3.92;0.90;;;;;;;15.99;58.18;102360.88;6274197;22;20193;-59
2022/09/20 12:21:08;;;;;;;7.55;1.20;;;;;;;15.95;57.96;102363.34;6274916;22;20018;-59
2022/09/20 12:23:39;;;;;;;5.88;1.20;;;;;;;15.95;57.89;102364.22;6274240;22;20023;-60